Hadar, Nebraska
Current Conditions -  °F | °C
As of 10:56 PM on Friday 21 Nov 2014 (Local Time) from KOFK Reporting Station
Overcast Overcast  
Wind Chill: 28°   Ceiling: 1300
Heat Index: 37°   Visibility: 9mi
Dew Point: 33°   Wind: 14mph
Humidity: 86%   Direction: 190°S
Pressure: 29.92"   Gusts: NA
Location:  42.11°N, 97.45°W
Report Text: KOFK 220456Z AUTO 19012KT 9SM OVC013 03/01 A2992 RMK AO2 SLP146 T00280006
Loading
Personal Weather Stations






























Interactive Weather Map New forecast layout! Learn more

10-Day Weather Forecast

Advertisements
Track Severe Weather on mobile